Weather at Jean Airport

Public forecast

Using degrees Fahrenheit for public forecast. Weather courtesy of forecast.io.

Closest aviation weather report (METAR) to Jean Airport

Closest report is Henderson Executive Airport, 15.5 nm (28.8 km) NE. Retrieved 2021/11/27 13:56 UTC (32 minutes ago):

KHND 271356Z 17008KT 10SM CLR 05/M16 A3017 RMK AO2 SLP238 T00501156

Closest aviation forecast (TAF) to Jean Airport

Closest forecast is Henderson Executive Airport, 15.5 nm (28.8 km) NE. Retrieved 2021/11/27 12:22 UTC (2 hours ago):

TAF KHND 271120Z 2712/2812 19006KT P6SM FEW250 FM272000 03006KT P6SM FEW250 FM280200 17006KT P6SM SKC